sensor_id;sensor_type;location;lat;lon;timestamp;temperature;humidity
19924;DHT22;10124;53.068;18.224;2023-03-17T00:04:24;-2.00;99.90
19924;DHT22;10124;53.068;18.224;2023-03-17T00:06:53;-2.00;99.90
19924;DHT22;10124;53.068;18.224;2023-03-17T00:31:43;-2.30;99.90
19924;DHT22;10124;53.068;18.224;2023-03-17T00:34:15;-2.30;99.90
19924;DHT22;10124;53.068;18.224;2023-03-17T00:36:45;-2.30;99.90
19924;DHT22;10124;53.068;18.224;2023-03-17T00:39:14;-2.30;99.90
19924;DHT22;10124;53.068;18.224;2023-03-17T01:06:47;-2.40;99.90
19924;DHT22;10124;53.068;18.224;2023-03-17T01:09:18;-2.40;99.90
19924;DHT22;10124;53.068;18.224;2023-03-17T01:19:12;-2.60;99.90
19924;DHT22;10124;53.068;18.224;2023-03-17T01:41:33;-2.70;99.90
19924;DHT22;10124;53.068;18.224;2023-03-17T01:51:40;-2.70;99.90
19924;DHT22;10124;53.068;18.224;2023-03-17T01:54:14;-2.80;99.90
19924;DHT22;10124;53.068;18.224;2023-03-17T01:56:46;-2.70;99.90
19924;DHT22;10124;53.068;18.224;2023-03-17T02:01:48;-2.70;99.90
19924;DHT22;10124;53.068;18.224;2023-03-17T02:04:17;-2.70;99.90
19924;DHT22;10124;53.068;18.224;2023-03-17T02:06:48;-2.70;99.90
19924;DHT22;10124;53.068;18.224;2023-03-17T02:09:25;-2.80;99.90
19924;DHT22;10124;53.068;18.224;2023-03-17T02:11:54;-2.70;99.90
19924;DHT22;10124;53.068;18.224;2023-03-17T02:21:50;-2.70;99.90
19924;DHT22;10124;53.068;18.224;2023-03-17T02:24:29;-2.70;99.90
19924;DHT22;10124;53.068;18.224;2023-03-17T02:27:15;-2.70;99.90
19924;DHT22;10124;53.068;18.224;2023-03-17T02:32:14;-2.60;99.90
19924;DHT22;10124;53.068;18.224;2023-03-17T03:24:05;-2.20;99.90
19924;DHT22;10124;53.068;18.224;2023-03-17T04:01:05;-2.10;99.90
19924;DHT22;10124;53.068;18.224;2023-03-17T04:55:22;-1.60;99.90
19924;DHT22;10124;53.068;18.224;2023-03-17T05:05:13;-1.60;99.90
19924;DHT22;10124;53.068;18.224;2023-03-17T05:59:34;-0.60;99.90
19924;DHT22;10124;53.068;18.224;2023-03-17T06:21:49;0.30;99.90
19924;DHT22;10124;53.068;18.224;2023-03-17T06:24:16;0.50;99.90
19924;DHT22;10124;53.068;18.224;2023-03-17T06:31:40;0.70;99.90
19924;DHT22;10124;53.068;18.224;2023-03-17T06:39:05;0.60;99.90
19924;DHT22;10124;53.068;18.224;2023-03-17T06:44:00;0.70;99.90
19924;DHT22;10124;53.068;18.224;2023-03-17T06:46:28;0.80;99.90
19924;DHT22;10124;53.068;18.224;2023-03-17T06:48:55;0.90;99.90
19924;DHT22;10124;53.068;18.224;2023-03-17T06:51:23;0.80;99.90
19924;DHT22;10124;53.068;18.224;2023-03-17T06:53:50;0.50;99.90
19924;DHT22;10124;53.068;18.224;2023-03-17T07:01:25;1.10;99.90
19924;DHT22;10124;53.068;18.224;2023-03-17T08:47:57;12.00;1.00
19924;DHT22;10124;53.068;18.224;2023-03-17T08:50:24;12.10;1.00
19924;DHT22;10124;53.068;18.224;2023-03-17T08:52:52;11.90;1.00
19924;DHT22;10124;53.068;18.224;2023-03-17T08:55:21;11.90;1.00
19924;DHT22;10124;53.068;18.224;2023-03-17T08:57:49;12.10;1.00
19924;DHT22;10124;53.068;18.224;2023-03-17T09:00:18;11.70;1.00
19924;DHT22;10124;53.068;18.224;2023-03-17T09:02:47;13.30;1.00
19924;DHT22;10124;53.068;18.224;2023-03-17T09:05:16;13.20;1.00
19924;DHT22;10124;53.068;18.224;2023-03-17T09:07:44;13.50;1.00
19924;DHT22;10124;53.068;18.224;2023-03-17T09:10:12;13.20;1.00
19924;DHT22;10124;53.068;18.224;2023-03-17T09:12:41;13.60;99.90
19924;DHT22;10124;53.068;18.224;2023-03-17T09:15:10;13.20;99.90
19924;DHT22;10124;53.068;18.224;2023-03-17T09:17:39;12.10;99.90
19924;DHT22;10124;53.068;18.224;2023-03-17T09:20:10;11.30;1.00
19924;DHT22;10124;53.068;18.224;2023-03-17T09:22:38;10.30;1.00
19924;DHT22;10124;53.068;18.224;2023-03-17T09:25:07;10.00;1.00
19924;DHT22;10124;53.068;18.224;2023-03-17T09:27:34;9.90;1.00
19924;DHT22;10124;53.068;18.224;2023-03-17T09:30:02;10.00;1.00
19924;DHT22;10124;53.068;18.224;2023-03-17T09:32:30;9.70;1.00
19924;DHT22;10124;53.068;18.224;2023-03-17T09:34:58;10.50;1.00
19924;DHT22;10124;53.068;18.224;2023-03-17T09:39:53;10.00;1.00
19924;DHT22;10124;53.068;18.224;2023-03-17T09:42:46;11.10;1.00
19924;DHT22;10124;53.068;18.224;2023-03-17T09:50:57;12.70;1.00
19924;DHT22;10124;53.068;18.224;2023-03-17T09:56:12;12.70;1.00
19924;DHT22;10124;53.068;18.224;2023-03-17T09:59:05;12.60;1.00
19924;DHT22;10124;53.068;18.224;2023-03-17T10:01:42;12.90;1.00
19924;DHT22;10124;53.068;18.224;2023-03-17T10:04:12;14.00;14.80
19924;DHT22;10124;53.068;18.224;2023-03-17T10:06:44;14.80;99.90
19924;DHT22;10124;53.068;18.224;2023-03-17T10:09:40;14.40;99.90
19924;DHT22;10124;53.068;18.224;2023-03-17T10:12:35;13.00;99.90
19924;DHT22;10124;53.068;18.224;2023-03-17T10:16:15;13.00;99.90
19924;DHT22;10124;53.068;18.224;2023-03-17T10:18:14;12.80;99.90
19924;DHT22;10124;53.068;18.224;2023-03-17T10:21:05;11.80;99.90
19924;DHT22;10124;53.068;18.224;2023-03-17T10:23:34;11.90;99.90
19924;DHT22;10124;53.068;18.224;2023-03-17T10:26:17;11.50;99.90
19924;DHT22;10124;53.068;18.224;2023-03-17T10:28:52;11.40;91.70
19924;DHT22;10124;53.068;18.224;2023-03-17T10:31:30;12.00;99.90
19924;DHT22;10124;53.068;18.224;2023-03-17T10:34:17;11.40;99.90
19924;DHT22;10124;53.068;18.224;2023-03-17T10:36:54;11.60;99.90
19924;DHT22;10124;53.068;18.224;2023-03-17T10:39:23;11.30;99.90
19924;DHT22;10124;53.068;18.224;2023-03-17T10:44:41;11.70;99.90
19924;DHT22;10124;53.068;18.224;2023-03-17T10:47:29;11.10;99.90
19924;DHT22;10124;53.068;18.224;2023-03-17T10:50:24;12.20;63.30
19924;DHT22;10124;53.068;18.224;2023-03-17T10:53:17;10.40;1.00
19924;DHT22;10124;53.068;18.224;2023-03-17T10:55:51;10.60;70.50
19924;DHT22;10124;53.068;18.224;2023-03-17T10:58:36;10.50;1.00
19924;DHT22;10124;53.068;18.224;2023-03-17T11:01:22;10.50;13.10
19924;DHT22;10124;53.068;18.224;2023-03-17T11:06:41;10.00;99.90
19924;DHT22;10124;53.068;18.224;2023-03-17T11:09:15;10.10;27.80
19924;DHT22;10124;53.068;18.224;2023-03-17T11:11:49;9.80;1.00
19924;DHT22;10124;53.068;18.224;2023-03-17T11:14:25;9.90;1.00
19924;DHT22;10124;53.068;18.224;2023-03-17T11:18:15;9.20;1.00
19924;DHT22;10124;53.068;18.224;2023-03-17T11:25:41;10.00;1.00
19924;DHT22;10124;53.068;18.224;2023-03-17T11:28:21;10.10;1.00
19924;DHT22;10124;53.068;18.224;2023-03-17T11:31:12;9.80;1.00
19924;DHT22;10124;53.068;18.224;2023-03-17T11:45:08;10.50;6.90
19924;DHT22;10124;53.068;18.224;2023-03-17T11:48:01;10.80;1.00
19924;DHT22;10124;53.068;18.224;2023-03-17T11:50:34;10.40;1.00
19924;DHT22;10124;53.068;18.224;2023-03-17T11:56:02;10.50;1.00
19924;DHT22;10124;53.068;18.224;2023-03-17T11:58:35;10.70;1.00
19924;DHT22;10124;53.068;18.224;2023-03-17T12:01:06;11.40;1.00
19924;DHT22;10124;53.068;18.224;2023-03-17T12:03:43;12.30;1.00
19924;DHT22;10124;53.068;18.224;2023-03-17T12:06:18;13.40;75.70
19924;DHT22;10124;53.068;18.224;2023-03-17T12:08:58;14.70;99.90
19924;DHT22;10124;53.068;18.224;2023-03-17T12:11:31;15.10;99.90
19924;DHT22;10124;53.068;18.224;2023-03-17T12:14:05;16.00;99.90
19924;DHT22;10124;53.068;18.224;2023-03-17T12:16:44;16.50;99.90
19924;DHT22;10124;53.068;18.224;2023-03-17T12:19:18;16.70;99.90
19924;DHT22;10124;53.068;18.224;2023-03-17T12:21:58;16.30;99.90
19924;DHT22;10124;53.068;18.224;2023-03-17T12:24:42;17.10;99.90
19924;DHT22;10124;53.068;18.224;2023-03-17T12:27:23;17.70;99.90
19924;DHT22;10124;53.068;18.224;2023-03-17T12:30:09;17.70;99.90
19924;DHT22;10124;53.068;18.224;2023-03-17T12:33:15;18.00;99.90
19924;DHT22;10124;53.068;18.224;2023-03-17T12:35:39;18.00;99.90
19924;DHT22;10124;53.068;18.224;2023-03-17T12:38:15;17.80;99.90
19924;DHT22;10124;53.068;18.224;2023-03-17T12:42:03;17.50;99.90
19924;DHT22;10124;53.068;18.224;2023-03-17T12:50:06;17.60;99.90
19924;DHT22;10124;53.068;18.224;2023-03-17T12:55:17;17.00;99.90
19924;DHT22;10124;53.068;18.224;2023-03-17T12:57:46;17.20;99.90
19924;DHT22;10124;53.068;18.224;2023-03-17T13:00:25;17.40;99.90
19924;DHT22;10124;53.068;18.224;2023-03-17T13:03:21;17.60;99.90
19924;DHT22;10124;53.068;18.224;2023-03-17T13:05:53;18.00;99.90
19924;DHT22;10124;53.068;18.224;2023-03-17T13:08:30;17.90;99.90
19924;DHT22;10124;53.068;18.224;2023-03-17T13:19:17;17.20;99.90
19924;DHT22;10124;53.068;18.224;2023-03-17T13:24:50;16.60;99.90
19924;DHT22;10124;53.068;18.224;2023-03-17T13:35:38;16.70;99.90
19924;DHT22;10124;53.068;18.224;2023-03-17T13:52:12;16.50;99.90
19924;DHT22;10124;53.068;18.224;2023-03-17T13:54:48;16.40;99.90
19924;DHT22;10124;53.068;18.224;2023-03-17T13:57:28;16.10;99.90
19924;DHT22;10124;53.068;18.224;2023-03-17T14:00:21;16.70;99.90
19924;DHT22;10124;53.068;18.224;2023-03-17T14:03:04;16.80;99.90
19924;DHT22;10124;53.068;18.224;2023-03-17T14:05:35;16.90;99.90
19924;DHT22;10124;53.068;18.224;2023-03-17T14:11:35;15.90;99.90
19924;DHT22;10124;53.068;18.224;2023-03-17T14:14:09;16.10;99.90
19924;DHT22;10124;53.068;18.224;2023-03-17T14:17:14;16.40;99.90
19924;DHT22;10124;53.068;18.224;2023-03-17T14:20:22;16.40;99.90
19924;DHT22;10124;53.068;18.224;2023-03-17T14:22:51;16.00;99.90
19924;DHT22;10124;53.068;18.224;2023-03-17T14:25:23;15.80;99.90
19924;DHT22;10124;53.068;18.224;2023-03-17T14:27:52;15.50;99.90
19924;DHT22;10124;53.068;18.224;2023-03-17T14:30:24;16.10;99.90
19924;DHT22;10124;53.068;18.224;2023-03-17T14:33:00;15.80;99.90
19924;DHT22;10124;53.068;18.224;2023-03-17T14:35:36;15.60;99.90
19924;DHT22;10124;53.068;18.224;2023-03-17T14:38:32;15.80;99.90
19924;DHT22;10124;53.068;18.224;2023-03-17T14:41:14;15.30;99.90
19924;DHT22;10124;53.068;18.224;2023-03-17T14:43:43;14.20;99.90
19924;DHT22;10124;53.068;18.224;2023-03-17T14:46:24;13.80;99.90
19924;DHT22;10124;53.068;18.224;2023-03-17T14:49:01;13.40;99.90
19924;DHT22;10124;53.068;18.224;2023-03-17T14:51:35;13.20;99.90
19924;DHT22;10124;53.068;18.224;2023-03-17T14:54:18;12.90;99.90
19924;DHT22;10124;53.068;18.224;2023-03-17T14:59:22;12.00;99.90
19924;DHT22;10124;53.068;18.224;2023-03-17T15:01:56;11.70;99.90
19924;DHT22;10124;53.068;18.224;2023-03-17T15:04:30;11.70;99.90
19924;DHT22;10124;53.068;18.224;2023-03-17T15:07:03;11.50;99.90
19924;DHT22;10124;53.068;18.224;2023-03-17T15:09:38;11.50;99.90
19924;DHT22;10124;53.068;18.224;2023-03-17T15:14:45;11.20;99.90
19924;DHT22;10124;53.068;18.224;2023-03-17T15:17:21;11.20;99.90
19924;DHT22;10124;53.068;18.224;2023-03-17T15:19:54;11.10;99.90
19924;DHT22;10124;53.068;18.224;2023-03-17T15:22:41;10.90;99.90
19924;DHT22;10124;53.068;18.224;2023-03-17T15:25:32;10.80;99.90
19924;DHT22;10124;53.068;18.224;2023-03-17T15:28:01;10.60;99.90
19924;DHT22;10124;53.068;18.224;2023-03-17T15:30:33;10.50;99.90
19924;DHT22;10124;53.068;18.224;2023-03-17T15:35:56;10.50;99.90
19924;DHT22;10124;53.068;18.224;2023-03-17T15:38:27;10.40;99.90
19924;DHT22;10124;53.068;18.224;2023-03-17T15:40:55;10.30;99.90
19924;DHT22;10124;53.068;18.224;2023-03-17T15:43:23;10.40;99.90
19924;DHT22;10124;53.068;18.224;2023-03-17T15:46:06;10.30;99.90
19924;DHT22;10124;53.068;18.224;2023-03-17T15:48:35;10.20;99.90
19924;DHT22;10124;53.068;18.224;2023-03-17T15:51:04;10.10;99.90
19924;DHT22;10124;53.068;18.224;2023-03-17T15:53:32;10.00;99.90
19924;DHT22;10124;53.068;18.224;2023-03-17T15:55:59;9.90;99.90
19924;DHT22;10124;53.068;18.224;2023-03-17T15:58:27;9.80;99.90
19924;DHT22;10124;53.068;18.224;2023-03-17T16:00:57;9.70;99.90
19924;DHT22;10124;53.068;18.224;2023-03-17T16:03:32;9.60;99.90
19924;DHT22;10124;53.068;18.224;2023-03-17T16:06:01;9.40;53.80
19924;DHT22;10124;53.068;18.224;2023-03-17T16:08:29;9.40;99.90
19924;DHT22;10124;53.068;18.224;2023-03-17T16:10:56;9.30;1.00
19924;DHT22;10124;53.068;18.224;2023-03-17T16:13:24;9.20;1.00
19924;DHT22;10124;53.068;18.224;2023-03-17T16:15:55;9.00;1.00
19924;DHT22;10124;53.068;18.224;2023-03-17T16:18:31;8.90;1.00
19924;DHT22;10124;53.068;18.224;2023-03-17T16:20:59;8.70;1.00
19924;DHT22;10124;53.068;18.224;2023-03-17T16:23:30;8.80;1.00
19924;DHT22;10124;53.068;18.224;2023-03-17T16:25:58;8.70;1.00
19924;DHT22;10124;53.068;18.224;2023-03-17T16:28:44;8.60;1.00
19924;DHT22;10124;53.068;18.224;2023-03-17T16:31:24;8.40;1.00
19924;DHT22;10124;53.068;18.224;2023-03-17T16:33:53;8.30;1.00
19924;DHT22;10124;53.068;18.224;2023-03-17T16:36:23;8.20;1.00
19924;DHT22;10124;53.068;18.224;2023-03-17T16:38:51;8.10;1.00
19924;DHT22;10124;53.068;18.224;2023-03-17T16:41:21;8.00;1.00
19924;DHT22;10124;53.068;18.224;2023-03-17T16:44:00;7.90;1.00
19924;DHT22;10124;53.068;18.224;2023-03-17T16:46:32;7.90;1.00
19924;DHT22;10124;53.068;18.224;2023-03-17T16:49:02;7.80;1.00
19924;DHT22;10124;53.068;18.224;2023-03-17T16:51:30;7.70;1.00
19924;DHT22;10124;53.068;18.224;2023-03-17T16:53:58;7.50;1.00
19924;DHT22;10124;53.068;18.224;2023-03-17T16:56:26;7.50;1.00
19924;DHT22;10124;53.068;18.224;2023-03-17T16:58:54;7.40;1.00
19924;DHT22;10124;53.068;18.224;2023-03-17T17:01:25;7.40;1.00
19924;DHT22;10124;53.068;18.224;2023-03-17T17:03:54;7.40;1.00
19924;DHT22;10124;53.068;18.224;2023-03-17T17:06:22;7.30;1.00
19924;DHT22;10124;53.068;18.224;2023-03-17T17:08:51;7.20;1.00
19924;DHT22;10124;53.068;18.224;2023-03-17T17:11:19;7.10;1.00
19924;DHT22;10124;53.068;18.224;2023-03-17T17:13:48;7.00;1.00
19924;DHT22;10124;53.068;18.224;2023-03-17T17:16:29;7.10;1.00
19924;DHT22;10124;53.068;18.224;2023-03-17T17:18:59;6.90;1.00
19924;DHT22;10124;53.068;18.224;2023-03-17T17:21:27;6.80;1.00
19924;DHT22;10124;53.068;18.224;2023-03-17T17:23:56;6.70;1.00
19924;DHT22;10124;53.068;18.224;2023-03-17T17:26:24;6.60;1.00
19924;DHT22;10124;53.068;18.224;2023-03-17T17:28:53;6.40;1.00
19924;DHT22;10124;53.068;18.224;2023-03-17T17:31:20;6.40;1.00
19924;DHT22;10124;53.068;18.224;2023-03-17T17:33:48;6.30;1.00
19924;DHT22;10124;53.068;18.224;2023-03-17T17:36:17;6.10;1.00
19924;DHT22;10124;53.068;18.224;2023-03-17T17:38:45;6.00;1.00
19924;DHT22;10124;53.068;18.224;2023-03-17T17:41:13;6.00;1.00
19924;DHT22;10124;53.068;18.224;2023-03-17T17:43:43;6.00;1.00
19924;DHT22;10124;53.068;18.224;2023-03-17T17:46:17;5.90;1.00
19924;DHT22;10124;53.068;18.224;2023-03-17T17:48:46;6.00;1.00
19924;DHT22;10124;53.068;18.224;2023-03-17T17:51:14;6.00;1.00
19924;DHT22;10124;53.068;18.224;2023-03-17T17:53:43;6.00;1.00
19924;DHT22;10124;53.068;18.224;2023-03-17T17:56:16;6.00;1.00
19924;DHT22;10124;53.068;18.224;2023-03-17T17:58:44;6.00;1.00
19924;DHT22;10124;53.068;18.224;2023-03-17T18:01:13;5.90;1.00
19924;DHT22;10124;53.068;18.224;2023-03-17T18:03:47;5.80;1.00
19924;DHT22;10124;53.068;18.224;2023-03-17T18:06:15;5.80;1.00
19924;DHT22;10124;53.068;18.224;2023-03-17T18:08:44;5.70;1.00
19924;DHT22;10124;53.068;18.224;2023-03-17T18:11:12;5.80;1.00
19924;DHT22;10124;53.068;18.224;2023-03-17T18:13:40;5.90;1.00
19924;DHT22;10124;53.068;18.224;2023-03-17T18:16:09;6.00;1.00
19924;DHT22;10124;53.068;18.224;2023-03-17T18:18:39;6.00;1.00
19924;DHT22;10124;53.068;18.224;2023-03-17T18:21:09;5.90;1.00
19924;DHT22;10124;53.068;18.224;2023-03-17T18:23:38;5.90;1.00
19924;DHT22;10124;53.068;18.224;2023-03-17T18:26:16;5.90;1.00
19924;DHT22;10124;53.068;18.224;2023-03-17T18:28:45;5.90;1.00
19924;DHT22;10124;53.068;18.224;2023-03-17T18:31:26;6.00;1.00
19924;DHT22;10124;53.068;18.224;2023-03-17T18:34:02;5.90;1.00
19924;DHT22;10124;53.068;18.224;2023-03-17T18:36:31;5.90;1.00
19924;DHT22;10124;53.068;18.224;2023-03-17T18:38:59;5.90;1.00
19924;DHT22;10124;53.068;18.224;2023-03-17T18:41:27;6.00;1.00
19924;DHT22;10124;53.068;18.224;2023-03-17T18:43:55;6.00;1.00
19924;DHT22;10124;53.068;18.224;2023-03-17T18:46:23;6.00;1.00
19924;DHT22;10124;53.068;18.224;2023-03-17T18:48:51;6.00;1.00
19924;DHT22;10124;53.068;18.224;2023-03-17T18:51:18;5.90;1.00
19924;DHT22;10124;53.068;18.224;2023-03-17T18:53:46;5.90;1.00
19924;DHT22;10124;53.068;18.224;2023-03-17T18:56:15;5.90;1.00
19924;DHT22;10124;53.068;18.224;2023-03-17T18:58:43;5.90;1.00
19924;DHT22;10124;53.068;18.224;2023-03-17T19:01:12;5.80;1.00
19924;DHT22;10124;53.068;18.224;2023-03-17T19:03:40;5.70;1.00
19924;DHT22;10124;53.068;18.224;2023-03-17T19:06:13;5.60;1.00
19924;DHT22;10124;53.068;18.224;2023-03-17T19:08:42;5.50;1.00
19924;DHT22;10124;53.068;18.224;2023-03-17T19:11:11;5.60;1.00
19924;DHT22;10124;53.068;18.224;2023-03-17T19:13:40;5.60;1.00
19924;DHT22;10124;53.068;18.224;2023-03-17T19:16:08;5.40;1.00
19924;DHT22;10124;53.068;18.224;2023-03-17T19:18:37;5.60;1.00
19924;DHT22;10124;53.068;18.224;2023-03-17T19:21:08;5.80;1.00
19924;DHT22;10124;53.068;18.224;2023-03-17T19:23:36;5.80;1.00
19924;DHT22;10124;53.068;18.224;2023-03-17T19:26:05;5.80;1.00
19924;DHT22;10124;53.068;18.224;2023-03-17T19:28:33;5.80;1.00
19924;DHT22;10124;53.068;18.224;2023-03-17T19:31:00;5.90;1.00
19924;DHT22;10124;53.068;18.224;2023-03-17T19:33:28;5.80;1.00
19924;DHT22;10124;53.068;18.224;2023-03-17T19:35:57;5.80;1.00
19924;DHT22;10124;53.068;18.224;2023-03-17T19:38:26;5.70;1.00
19924;DHT22;10124;53.068;18.224;2023-03-17T19:40:54;5.70;1.00
19924;DHT22;10124;53.068;18.224;2023-03-17T19:43:22;5.70;1.00
19924;DHT22;10124;53.068;18.224;2023-03-17T19:46:06;5.70;1.00
19924;DHT22;10124;53.068;18.224;2023-03-17T19:48:37;5.90;1.00
19924;DHT22;10124;53.068;18.224;2023-03-17T19:51:06;5.80;1.00
19924;DHT22;10124;53.068;18.224;2023-03-17T19:53:36;5.80;1.00
19924;DHT22;10124;53.068;18.224;2023-03-17T19:56:05;5.80;1.00
19924;DHT22;10124;53.068;18.224;2023-03-17T19:58:33;5.90;1.00
19924;DHT22;10124;53.068;18.224;2023-03-17T20:01:03;5.90;1.00
19924;DHT22;10124;53.068;18.224;2023-03-17T20:03:34;5.80;1.00
19924;DHT22;10124;53.068;18.224;2023-03-17T20:06:05;5.90;1.00
19924;DHT22;10124;53.068;18.224;2023-03-17T20:08:34;5.90;1.00
19924;DHT22;10124;53.068;18.224;2023-03-17T20:11:03;5.90;1.00
19924;DHT22;10124;53.068;18.224;2023-03-17T20:13:34;5.80;1.00
19924;DHT22;10124;53.068;18.224;2023-03-17T20:16:04;5.80;1.00
19924;DHT22;10124;53.068;18.224;2023-03-17T20:18:34;5.80;1.00
19924;DHT22;10124;53.068;18.224;2023-03-17T20:21:03;5.80;1.00
19924;DHT22;10124;53.068;18.224;2023-03-17T20:23:34;5.80;1.00
19924;DHT22;10124;53.068;18.224;2023-03-17T20:26:04;5.70;1.00
19924;DHT22;10124;53.068;18.224;2023-03-17T20:28:34;5.70;1.00
19924;DHT22;10124;53.068;18.224;2023-03-17T20:31:02;6.00;1.00
19924;DHT22;10124;53.068;18.224;2023-03-17T20:33:32;5.60;1.00
19924;DHT22;10124;53.068;18.224;2023-03-17T20:36:02;5.60;1.00
19924;DHT22;10124;53.068;18.224;2023-03-17T20:38:32;5.60;1.00
19924;DHT22;10124;53.068;18.224;2023-03-17T20:41:13;5.70;1.00
19924;DHT22;10124;53.068;18.224;2023-03-17T20:43:41;5.60;1.00
19924;DHT22;10124;53.068;18.224;2023-03-17T20:46:15;5.50;1.00
19924;DHT22;10124;53.068;18.224;2023-03-17T20:48:48;5.50;1.00
19924;DHT22;10124;53.068;18.224;2023-03-17T20:51:18;5.50;1.00
19924;DHT22;10124;53.068;18.224;2023-03-17T20:53:48;5.40;1.00
19924;DHT22;10124;53.068;18.224;2023-03-17T20:56:19;5.40;1.00
19924;DHT22;10124;53.068;18.224;2023-03-17T20:58:49;5.30;1.00
19924;DHT22;10124;53.068;18.224;2023-03-17T21:01:21;5.60;1.00
19924;DHT22;10124;53.068;18.224;2023-03-17T21:03:50;5.40;1.00
19924;DHT22;10124;53.068;18.224;2023-03-17T21:06:18;5.30;1.00
19924;DHT22;10124;53.068;18.224;2023-03-17T21:08:47;5.20;1.00
19924;DHT22;10124;53.068;18.224;2023-03-17T21:11:19;5.10;1.00
19924;DHT22;10124;53.068;18.224;2023-03-17T21:13:48;5.10;1.00
19924;DHT22;10124;53.068;18.224;2023-03-17T21:16:22;5.20;1.00
19924;DHT22;10124;53.068;18.224;2023-03-17T21:18:54;5.10;1.00
19924;DHT22;10124;53.068;18.224;2023-03-17T21:21:23;5.10;1.00
19924;DHT22;10124;53.068;18.224;2023-03-17T21:23:53;5.00;1.00
19924;DHT22;10124;53.068;18.224;2023-03-17T21:26:21;5.00;1.00
19924;DHT22;10124;53.068;18.224;2023-03-17T21:28:52;5.00;1.00
19924;DHT22;10124;53.068;18.224;2023-03-17T21:31:21;5.00;1.00
19924;DHT22;10124;53.068;18.224;2023-03-17T21:33:49;5.00;1.00
19924;DHT22;10124;53.068;18.224;2023-03-17T21:36:17;4.90;1.00
19924;DHT22;10124;53.068;18.224;2023-03-17T21:38:47;4.90;1.00
19924;DHT22;10124;53.068;18.224;2023-03-17T21:41:32;4.90;1.00
19924;DHT22;10124;53.068;18.224;2023-03-17T21:44:01;5.00;1.00
19924;DHT22;10124;53.068;18.224;2023-03-17T21:46:31;4.90;1.00
19924;DHT22;10124;53.068;18.224;2023-03-17T21:49:01;4.90;1.00
19924;DHT22;10124;53.068;18.224;2023-03-17T21:51:29;4.90;1.00
19924;DHT22;10124;53.068;18.224;2023-03-17T21:53:59;4.90;1.00
19924;DHT22;10124;53.068;18.224;2023-03-17T21:56:28;4.90;1.00
19924;DHT22;10124;53.068;18.224;2023-03-17T21:58:57;4.80;1.00
19924;DHT22;10124;53.068;18.224;2023-03-17T22:01:26;4.70;1.00
19924;DHT22;10124;53.068;18.224;2023-03-17T22:03:56;4.70;1.00
19924;DHT22;10124;53.068;18.224;2023-03-17T22:06:26;4.70;1.00
19924;DHT22;10124;53.068;18.224;2023-03-17T22:08:57;4.60;1.00
19924;DHT22;10124;53.068;18.224;2023-03-17T22:11:28;4.60;1.00
19924;DHT22;10124;53.068;18.224;2023-03-17T22:13:57;4.70;1.00
19924;DHT22;10124;53.068;18.224;2023-03-17T22:16:25;4.70;1.00
19924;DHT22;10124;53.068;18.224;2023-03-17T22:18:54;4.70;1.00
19924;DHT22;10124;53.068;18.224;2023-03-17T22:21:23;4.60;1.00
19924;DHT22;10124;53.068;18.224;2023-03-17T22:23:52;4.60;1.00
19924;DHT22;10124;53.068;18.224;2023-03-17T22:26:21;4.50;1.00
19924;DHT22;10124;53.068;18.224;2023-03-17T22:28:50;4.40;1.00
19924;DHT22;10124;53.068;18.224;2023-03-17T22:31:27;4.40;1.00
19924;DHT22;10124;53.068;18.224;2023-03-17T22:33:56;4.30;1.00
19924;DHT22;10124;53.068;18.224;2023-03-17T22:36:27;4.30;1.00
19924;DHT22;10124;53.068;18.224;2023-03-17T22:38:57;4.30;1.00
19924;DHT22;10124;53.068;18.224;2023-03-17T22:41:27;4.30;1.00
19924;DHT22;10124;53.068;18.224;2023-03-17T22:43:56;4.30;1.00
19924;DHT22;10124;53.068;18.224;2023-03-17T22:46:24;4.20;1.00
19924;DHT22;10124;53.068;18.224;2023-03-17T22:48:54;4.20;1.00
19924;DHT22;10124;53.068;18.224;2023-03-17T22:51:24;4.10;1.00
19924;DHT22;10124;53.068;18.224;2023-03-17T22:53:54;4.70;1.00
19924;DHT22;10124;53.068;18.224;2023-03-17T22:56:23;4.10;1.00
19924;DHT22;10124;53.068;18.224;2023-03-17T22:58:55;4.00;1.00
19924;DHT22;10124;53.068;18.224;2023-03-17T23:01:23;4.00;1.00
19924;DHT22;10124;53.068;18.224;2023-03-17T23:03:53;4.00;1.00
19924;DHT22;10124;53.068;18.224;2023-03-17T23:06:22;4.00;1.00
19924;DHT22;10124;53.068;18.224;2023-03-17T23:08:50;4.00;1.00
19924;DHT22;10124;53.068;18.224;2023-03-17T23:11:22;4.00;1.00
19924;DHT22;10124;53.068;18.224;2023-03-17T23:13:52;4.00;1.00
19924;DHT22;10124;53.068;18.224;2023-03-17T23:16:20;4.00;1.00
19924;DHT22;10124;53.068;18.224;2023-03-17T23:18:49;3.90;1.00
19924;DHT22;10124;53.068;18.224;2023-03-17T23:21:33;3.90;1.00
19924;DHT22;10124;53.068;18.224;2023-03-17T23:24:04;4.00;1.00
19924;DHT22;10124;53.068;18.224;2023-03-17T23:26:35;3.90;1.00
19924;DHT22;10124;53.068;18.224;2023-03-17T23:29:05;3.80;1.00
19924;DHT22;10124;53.068;18.224;2023-03-17T23:31:34;3.90;1.00
19924;DHT22;10124;53.068;18.224;2023-03-17T23:34:04;3.80;1.00
19924;DHT22;10124;53.068;18.224;2023-03-17T23:36:34;3.80;1.00
19924;DHT22;10124;53.068;18.224;2023-03-17T23:39:07;3.80;1.00
19924;DHT22;10124;53.068;18.224;2023-03-17T23:41:34;3.70;1.00
19924;DHT22;10124;53.068;18.224;2023-03-17T23:44:02;3.80;1.00
19924;DHT22;10124;53.068;18.224;2023-03-17T23:46:31;3.80;1.00
19924;DHT22;10124;53.068;18.224;2023-03-17T23:48:59;3.80;1.00
19924;DHT22;10124;53.068;18.224;2023-03-17T23:51:27;3.80;1.00
19924;DHT22;10124;53.068;18.224;2023-03-17T23:53:58;3.70;1.00
19924;DHT22;10124;53.068;18.224;2023-03-17T23:56:26;3.70;1.00
19924;DHT22;10124;53.068;18.224;2023-03-17T23:58:54;3.80;1.00
